createdAt,value
2018-10-03T00:02:13.726Z,11.59
2018-10-03T00:04:43.050Z,11.53
2018-10-03T00:07:12.400Z,11.57
2018-10-03T00:09:41.727Z,11.56
2018-10-03T00:12:11.474Z,11.60
2018-10-03T00:14:40.806Z,11.65
2018-10-03T00:17:10.133Z,11.73
2018-10-03T00:19:39.510Z,11.70
2018-10-03T00:22:08.811Z,11.68
2018-10-03T00:24:40.448Z,11.76
2018-10-03T00:27:09.774Z,11.78
2018-10-03T00:29:39.182Z,11.75
2018-10-03T00:32:09.164Z,11.85
2018-10-03T00:34:38.530Z,11.83
2018-10-03T00:37:07.847Z,11.86
2018-10-03T00:39:37.169Z,11.92
2018-10-03T00:42:07.419Z,11.92
2018-10-03T00:44:36.760Z,11.94
2018-10-03T00:47:06.233Z,12.10
2018-10-03T00:49:35.631Z,12.15
2018-10-03T00:52:04.991Z,12.09
2018-10-03T00:54:34.920Z,12.14
2018-10-03T00:57:04.263Z,12.08
2018-10-03T00:59:33.603Z,12.09
2018-10-03T01:02:02.907Z,12.02
2018-10-03T01:04:35.488Z,12.05
2018-10-03T01:07:05.311Z,12.00
2018-10-03T01:09:34.684Z,11.84
2018-10-03T01:12:05.342Z,11.86
2018-10-03T01:14:35.739Z,11.95
2018-10-03T01:17:05.884Z,11.78
2018-10-03T01:19:35.288Z,11.51
2018-10-03T01:22:04.657Z,11.46
2018-10-03T01:24:34.127Z,11.44
2018-10-03T01:27:03.518Z,11.36
2018-10-03T01:29:34.480Z,11.34
2018-10-03T01:32:03.878Z,11.43
2018-10-03T01:34:33.213Z,11.35
2018-10-03T01:37:02.764Z,11.29
2018-10-03T01:39:32.076Z,11.31
2018-10-03T01:42:02.415Z,11.21
2018-10-03T01:44:31.872Z,11.01
2018-10-03T01:47:01.271Z,11.01
2018-10-03T01:49:31.501Z,11.12
2018-10-03T01:52:00.816Z,11.07
2018-10-03T01:54:30.149Z,11.09
2018-10-03T01:56:59.730Z,11.09
2018-10-03T01:59:29.395Z,11.31
2018-10-03T02:01:58.758Z,11.25
2018-10-03T02:04:28.080Z,11.09
2018-10-03T02:06:57.406Z,11.20
2018-10-03T02:09:26.730Z,11.24
2018-10-03T02:11:56.033Z,11.32
2018-10-03T02:14:25.351Z,11.18
2018-10-03T02:16:54.617Z,11.25
2018-10-03T02:19:24.060Z,11.16
2018-10-03T02:21:53.449Z,11.20
2018-10-03T02:24:22.843Z,11.26
2018-10-03T02:26:52.186Z,11.17
2018-10-03T02:29:21.573Z,11.13
2018-10-03T02:31:50.896Z,11.17
2018-10-03T02:34:20.269Z,11.21
2018-10-03T02:36:49.678Z,11.17
2018-10-03T02:39:19.010Z,11.33
2018-10-03T02:41:48.448Z,11.29
2018-10-03T02:44:18.100Z,11.28
2018-10-03T02:46:47.503Z,11.31
2018-10-03T02:49:16.866Z,11.31
2018-10-03T02:51:46.574Z,11.22
2018-10-03T02:54:15.906Z,11.21
2018-10-03T02:56:45.348Z,11.07
2018-10-03T02:59:14.897Z,11.34
2018-10-03T03:01:44.453Z,11.38
2018-10-03T03:04:13.857Z,11.56
2018-10-03T03:06:43.397Z,11.40
2018-10-03T03:09:14.076Z,11.51
2018-10-03T03:11:43.564Z,11.56
2018-10-03T03:14:12.974Z,11.71
2018-10-03T03:16:42.379Z,11.69
2018-10-03T03:19:11.760Z,11.72
2018-10-03T03:21:41.092Z,11.62
2018-10-03T03:24:10.396Z,11.68
2018-10-03T03:26:39.739Z,11.89
2018-10-03T03:29:09.386Z,11.73
2018-10-03T03:31:38.760Z,11.72
2018-10-03T03:34:08.068Z,12.08
2018-10-03T03:36:37.372Z,11.80
2018-10-03T03:39:07.983Z,11.82
2018-10-03T03:41:37.377Z,11.74
2018-10-03T03:44:06.746Z,11.85
2018-10-03T03:46:36.692Z,11.74
2018-10-03T03:49:06.141Z,11.78
2018-10-03T03:51:35.577Z,11.72
2018-10-03T03:54:04.924Z,11.52
2018-10-03T03:56:34.314Z,11.49
2018-10-03T03:59:03.707Z,11.72
2018-10-03T04:01:33.600Z,11.85
2018-10-03T04:04:02.967Z,11.95
2018-10-03T04:06:32.355Z,11.90
2018-10-03T04:09:01.653Z,11.77
2018-10-03T04:11:31.106Z,11.77
2018-10-03T04:14:00.571Z,11.79
2018-10-03T04:16:30.083Z,11.93
2018-10-03T04:18:59.446Z,11.67
2018-10-03T04:21:32.266Z,11.78
2018-10-03T04:24:01.599Z,11.79
2018-10-03T04:26:30.986Z,11.71
2018-10-03T04:29:00.382Z,11.61
2018-10-03T04:31:29.834Z,11.52
2018-10-03T04:33:59.191Z,11.59
2018-10-03T04:36:28.686Z,11.56
2018-10-03T04:38:57.966Z,11.48
2018-10-03T04:41:27.350Z,11.22
2018-10-03T04:43:56.719Z,11.24
2018-10-03T04:46:26.109Z,11.24
2018-10-03T04:48:55.561Z,11.17
2018-10-03T04:51:24.939Z,11.43
2018-10-03T04:53:54.238Z,11.47
2018-10-03T04:56:23.510Z,11.33
2018-10-03T04:58:53.090Z,11.13
2018-10-03T05:01:22.363Z,11.10
2018-10-03T05:03:51.678Z,11.33
2018-10-03T05:06:20.991Z,11.40
2018-10-03T05:08:50.293Z,11.42
2018-10-03T05:11:19.613Z,11.53
2018-10-03T05:13:48.928Z,11.45
2018-10-03T05:16:18.275Z,11.54
2018-10-03T05:18:48.483Z,11.33
2018-10-03T05:21:17.867Z,11.24
2018-10-03T05:23:47.167Z,11.37
2018-10-03T05:26:16.425Z,11.58
2018-10-03T05:28:45.764Z,11.38
2018-10-03T05:31:15.065Z,11.38
2018-10-03T05:33:44.371Z,11.40
2018-10-03T05:36:13.684Z,11.54
2018-10-03T05:38:42.958Z,11.73
2018-10-03T05:41:13.396Z,11.75
2018-10-03T05:43:43.223Z,11.57
2018-10-03T05:46:12.609Z,11.60
2018-10-03T05:48:41.935Z,11.60
2018-10-03T05:51:11.284Z,11.55
2018-10-03T05:53:40.682Z,11.56
2018-10-03T05:56:10.007Z,11.56
2018-10-03T05:58:39.385Z,11.64
2018-10-03T06:01:08.751Z,11.53
2018-10-03T06:03:38.110Z,11.27
2018-10-03T06:06:08.149Z,11.38
2018-10-03T06:08:37.531Z,11.59
2018-10-03T06:11:06.964Z,11.60
2018-10-03T06:13:36.342Z,11.65
2018-10-03T06:16:05.890Z,11.84
2018-10-03T06:18:35.322Z,11.97
2018-10-03T06:21:04.683Z,12.05
2018-10-03T06:23:34.050Z,11.94
2018-10-03T06:26:03.384Z,12.22
2018-10-03T06:28:33.170Z,12.28
2018-10-03T06:31:02.881Z,12.14
2018-10-03T06:33:32.243Z,12.22
2018-10-03T06:36:01.747Z,12.11
2018-10-03T06:38:31.220Z,12.01
2018-10-03T06:41:00.660Z,12.17
2018-10-03T06:43:30.060Z,12.28
2018-10-03T06:45:59.400Z,12.32
2018-10-03T06:48:28.759Z,12.61
2018-10-03T06:50:58.295Z,12.77
2018-10-03T06:53:27.660Z,12.99
2018-10-03T06:55:56.961Z,13.28
2018-10-03T06:58:26.339Z,13.92
2018-10-03T07:00:55.754Z,14.28
2018-10-03T07:03:25.147Z,13.90
2018-10-03T07:05:54.560Z,13.68
2018-10-03T07:08:23.908Z,12.94
2018-10-03T07:10:53.279Z,13.03
2018-10-03T07:13:22.726Z,13.00
2018-10-03T07:15:52.061Z,12.98
2018-10-03T07:18:21.428Z,13.33
2018-10-03T07:20:50.836Z,13.99
2018-10-03T07:23:20.152Z,14.03
2018-10-03T07:25:49.489Z,14.78
2018-10-03T07:28:18.909Z,16.96
2018-10-03T07:30:48.249Z,19.04
2018-10-03T07:33:17.656Z,20.36
2018-10-03T07:35:47.265Z,20.55
2018-10-03T07:38:16.578Z,19.50
2018-10-03T07:40:45.933Z,18.84
2018-10-03T07:43:15.343Z,17.70
2018-10-03T07:45:44.759Z,17.22
2018-10-03T07:48:14.079Z,17.28
2018-10-03T07:50:43.508Z,16.25
2018-10-03T07:53:12.883Z,17.24
2018-10-03T07:55:42.228Z,19.28
2018-10-03T07:58:11.688Z,19.80
2018-10-03T08:00:41.035Z,19.78
2018-10-03T08:03:12.910Z,21.27
2018-10-03T08:05:42.174Z,22.07
2018-10-03T08:08:11.533Z,20.81
2018-10-03T08:10:41.622Z,19.95
2018-10-03T08:13:11.191Z,18.47
2018-10-03T08:15:40.883Z,17.59
2018-10-03T08:18:10.500Z,17.05
2018-10-03T08:20:39.914Z,16.91
2018-10-03T08:23:09.419Z,17.34
2018-10-03T08:25:38.994Z,18.22
2018-10-03T08:28:08.399Z,20.02
2018-10-03T08:30:38.041Z,21.34
2018-10-03T08:33:07.782Z,23.17
2018-10-03T08:35:37.173Z,23.56
2018-10-03T08:38:06.581Z,23.44
2018-10-03T08:40:36.324Z,24.55
2018-10-03T08:43:05.760Z,24.81
2018-10-03T08:45:35.352Z,26.12
2018-10-03T08:48:04.841Z,27.06
2018-10-03T08:50:34.246Z,25.30
2018-10-03T08:53:04.127Z,26.30
2018-10-03T08:55:33.740Z,28.15
2018-10-03T08:58:03.153Z,28.75
2018-10-03T09:00:32.698Z,28.49
2018-10-03T09:03:02.408Z,26.68
2018-10-03T09:05:32.284Z,25.94
2018-10-03T09:08:15.726Z,23.69
2018-10-03T09:10:48.884Z,21.68
2018-10-03T09:13:18.488Z,20.79
2018-10-03T09:15:48.090Z,21.52
2018-10-03T09:18:18.771Z,21.89
2018-10-03T09:20:48.547Z,22.17
2018-10-03T09:23:20.104Z,23.04
2018-10-03T09:25:49.916Z,24.39
2018-10-03T09:28:19.393Z,25.39
2018-10-03T09:30:49.945Z,25.44
2018-10-03T09:33:19.804Z,24.36
2018-10-03T09:35:49.223Z,22.63
2018-10-03T09:38:19.728Z,21.49
2018-10-03T09:40:49.386Z,24.52
2018-10-03T09:43:18.846Z,23.61
2018-10-03T09:45:49.515Z,22.67
2018-10-03T09:48:19.096Z,23.47
2018-10-03T09:50:48.552Z,26.80
2018-10-03T09:53:18.038Z,28.47
2018-10-03T09:55:48.043Z,28.75
2018-10-03T09:58:17.463Z,29.29
2018-10-03T10:00:52.235Z,29.73
2018-10-03T10:03:21.716Z,31.99
2018-10-03T10:05:51.087Z,31.96
2018-10-03T10:08:20.476Z,30.37
2018-10-03T10:10:49.863Z,31.32
2018-10-03T10:13:19.315Z,29.98
2018-10-03T10:15:48.717Z,26.93
2018-10-03T10:18:18.064Z,25.91
2018-10-03T10:20:47.621Z,25.92
2018-10-03T10:23:17.104Z,23.98
2018-10-03T10:25:46.447Z,21.32
2018-10-03T10:28:16.058Z,21.40
2018-10-03T10:30:46.645Z,25.69
2018-10-03T10:33:16.556Z,28.15
2018-10-03T10:35:46.085Z,28.48
2018-10-03T10:38:15.598Z,30.14
2018-10-03T10:40:45.539Z,31.46
2018-10-03T10:43:16.041Z,31.22
2018-10-03T10:45:45.803Z,30.07
2018-10-03T10:48:16.586Z,27.23
2018-10-03T10:50:46.466Z,28.51
2018-10-03T10:53:16.609Z,29.93
2018-10-03T10:55:47.222Z,30.00
2018-10-03T10:58:16.689Z,29.83
2018-10-03T11:00:46.123Z,31.68
2018-10-03T11:03:15.771Z,31.97
2018-10-03T11:05:45.628Z,29.24
2018-10-03T11:08:15.196Z,29.08
2018-10-03T11:10:44.552Z,27.21
2018-10-03T11:13:14.090Z,26.25
2018-10-03T11:15:43.618Z,25.44
2018-10-03T11:18:13.024Z,23.61
2018-10-03T11:20:42.468Z,22.62
2018-10-03T11:23:11.845Z,23.33
2018-10-03T11:25:41.232Z,23.16
2018-10-03T11:28:10.760Z,25.70
2018-10-03T11:30:40.304Z,29.52
2018-10-03T11:33:09.714Z,31.06
2018-10-03T11:35:41.851Z,31.71
2018-10-03T11:38:11.248Z,32.17
2018-10-03T11:40:40.688Z,31.78
2018-10-03T11:43:10.068Z,30.04
2018-10-03T11:45:39.781Z,27.67
2018-10-03T11:48:10.237Z,24.68
2018-10-03T11:50:40.372Z,23.00
2018-10-03T11:53:09.859Z,22.08
2018-10-03T11:55:40.898Z,23.44
2018-10-03T11:58:10.669Z,26.41
2018-10-03T12:00:40.115Z,28.58
2018-10-03T12:03:09.594Z,28.85
2018-10-03T12:05:40.929Z,29.64
2018-10-03T12:08:10.313Z,27.14
2018-10-03T12:10:40.418Z,24.39
2018-10-03T12:13:09.983Z,22.61
2018-10-03T12:15:41.412Z,21.78
2018-10-03T12:18:11.833Z,20.75
2018-10-03T12:20:41.405Z,19.67
2018-10-03T12:23:10.847Z,20.28
2018-10-03T12:25:45.573Z,23.27
2018-10-03T12:28:15.455Z,26.37
2018-10-03T12:30:44.906Z,26.94
2018-10-03T12:33:14.399Z,27.40
2018-10-03T12:35:45.609Z,28.40
2018-10-03T12:38:15.251Z,27.74
2018-10-03T12:40:45.470Z,29.01
2018-10-03T12:43:15.813Z,28.65
2018-10-03T12:45:47.543Z,29.47
2018-10-03T12:48:18.193Z,30.70
2018-10-03T12:50:47.912Z,30.81
2018-10-03T12:53:17.480Z,31.38
2018-10-03T12:55:47.131Z,31.54
2018-10-03T12:58:17.673Z,29.88
2018-10-03T13:00:47.672Z,28.50
2018-10-03T13:03:17.490Z,25.81
2018-10-03T13:05:47.095Z,24.61
2018-10-03T13:08:16.873Z,23.66
2018-10-03T13:10:47.420Z,22.88
2018-10-03T13:13:21.177Z,22.00
2018-10-03T13:15:50.566Z,20.90
2018-10-03T13:18:22.636Z,20.62
2018-10-03T13:20:52.097Z,20.40
2018-10-03T13:23:21.547Z,20.03
2018-10-03T13:25:51.027Z,19.99
2018-10-03T13:28:21.431Z,21.61
2018-10-03T13:30:50.819Z,21.15
2018-10-03T13:33:20.123Z,20.42
2018-10-03T13:35:49.620Z,19.61
2018-10-03T13:38:19.047Z,19.29
2018-10-03T13:40:48.936Z,19.35
2018-10-03T13:43:18.889Z,19.11
2018-10-03T13:45:48.381Z,19.26
2018-10-03T13:48:17.783Z,19.38
2018-10-03T13:50:47.452Z,19.47
2018-10-03T13:53:16.881Z,19.01
2018-10-03T13:55:47.409Z,19.07
2018-10-03T13:58:22.718Z,19.82
2018-10-03T14:00:52.371Z,21.36
2018-10-03T14:03:21.807Z,21.24
2018-10-03T14:05:51.584Z,20.43
2018-10-03T14:08:20.989Z,20.94
2018-10-03T14:10:50.466Z,21.95
2018-10-03T14:13:19.971Z,22.07
2018-10-03T14:15:49.269Z,23.56
2018-10-03T14:18:20.514Z,23.94
2018-10-03T14:20:50.605Z,25.29
2018-10-03T14:23:20.038Z,25.01
2018-10-03T14:25:49.441Z,23.40
2018-10-03T14:28:18.975Z,21.38
2018-10-03T14:30:49.935Z,20.70
2018-10-03T14:33:19.414Z,20.07
2018-10-03T14:35:48.830Z,20.13
2018-10-03T14:38:19.084Z,20.41
2018-10-03T14:40:48.556Z,20.25
2018-10-03T14:43:18.036Z,20.13
2018-10-03T14:45:47.400Z,21.52
2018-10-03T14:48:18.672Z,22.34
2018-10-03T14:50:48.259Z,23.33
2018-10-03T14:53:17.581Z,22.44
2018-10-03T14:55:47.380Z,21.25
2018-10-03T14:58:16.804Z,21.38
2018-10-03T15:00:47.362Z,21.46
2018-10-03T15:03:16.738Z,21.05
2018-10-03T15:05:46.228Z,19.17
2018-10-03T15:08:15.732Z,18.56
2018-10-03T15:10:45.379Z,18.49
2018-10-03T15:13:16.187Z,19.39
2018-10-03T15:15:45.609Z,19.22
2018-10-03T15:18:15.082Z,18.34
2018-10-03T15:20:44.675Z,18.37
2018-10-03T15:23:14.077Z,17.87
2018-10-03T15:25:43.437Z,17.99
2018-10-03T15:28:12.821Z,17.85
2018-10-03T15:30:42.148Z,17.73
2018-10-03T15:33:11.576Z,17.48
2018-10-03T15:35:41.299Z,17.42
2018-10-03T15:38:10.622Z,17.34
2018-10-03T15:40:40.148Z,17.26
2018-10-03T15:43:09.702Z,17.17
2018-10-03T15:45:39.103Z,17.13
2018-10-03T15:48:08.698Z,17.06
2018-10-03T15:50:38.730Z,16.93
2018-10-03T15:53:08.776Z,16.83
2018-10-03T15:55:39.129Z,16.93
2018-10-03T15:58:08.531Z,16.65
2018-10-03T16:00:37.917Z,16.86
2018-10-03T16:03:09.156Z,16.94
2018-10-03T16:05:38.491Z,16.73
2018-10-03T16:08:08.895Z,16.68
2018-10-03T16:10:38.359Z,16.53
2018-10-03T16:13:08.309Z,16.48
2018-10-03T16:15:37.643Z,16.35
2018-10-03T16:18:07.473Z,16.31
2018-10-03T16:20:37.156Z,16.22
2018-10-03T16:23:06.666Z,16.22
2018-10-03T16:25:36.057Z,16.10
2018-10-03T16:28:05.538Z,15.78
2018-10-03T16:30:34.894Z,15.72
2018-10-03T16:33:04.245Z,15.89
2018-10-03T16:35:33.593Z,15.58
2018-10-03T16:38:02.932Z,15.61
2018-10-03T16:40:32.450Z,15.53
2018-10-03T16:43:01.920Z,15.40
2018-10-03T16:45:31.407Z,15.69
2018-10-03T16:48:00.859Z,15.58
2018-10-03T16:50:30.222Z,15.61
2018-10-03T16:52:59.576Z,15.63
2018-10-03T16:55:29.039Z,15.65
2018-10-03T16:57:58.340Z,15.67
2018-10-03T17:00:27.673Z,15.60
2018-10-03T17:02:57.332Z,15.57
2018-10-03T17:05:26.699Z,15.50
2018-10-03T17:07:56.103Z,15.29
2018-10-03T17:10:25.463Z,15.28
2018-10-03T17:12:54.846Z,15.45
2018-10-03T17:15:24.320Z,15.44
2018-10-03T17:17:54.438Z,15.34
2018-10-03T17:20:28.224Z,14.99
2018-10-03T17:22:57.858Z,14.97
2018-10-03T17:25:27.267Z,14.83
2018-10-03T17:27:56.634Z,14.90
2018-10-03T17:30:26.037Z,15.06
2018-10-03T17:32:55.481Z,15.08
2018-10-03T17:35:24.937Z,15.12
2018-10-03T17:37:55.138Z,15.22
2018-10-03T17:40:24.499Z,15.21
2018-10-03T17:42:54.565Z,15.38
2018-10-03T17:45:24.881Z,15.26
2018-10-03T17:47:54.397Z,15.18
2018-10-03T17:50:23.862Z,15.21
2018-10-03T17:52:53.421Z,15.18
2018-10-03T17:55:23.205Z,15.13
2018-10-03T17:57:52.639Z,15.14
2018-10-03T18:00:22.150Z,15.34
2018-10-03T18:02:51.514Z,15.13
2018-10-03T18:05:23.507Z,15.15
2018-10-03T18:07:52.882Z,15.26
2018-10-03T18:10:22.226Z,15.07
2018-10-03T18:12:51.687Z,14.96
2018-10-03T18:15:22.037Z,14.90
2018-10-03T18:17:51.357Z,14.61
2018-10-03T18:20:21.943Z,14.71
2018-10-03T18:22:52.419Z,14.55
2018-10-03T18:25:22.425Z,14.22
2018-10-03T18:27:51.968Z,14.33
2018-10-03T18:30:23.278Z,14.43
2018-10-03T18:32:53.406Z,14.52
2018-10-03T18:35:23.021Z,14.71
2018-10-03T18:37:52.537Z,14.79
2018-10-03T18:40:22.096Z,14.77
2018-10-03T18:42:51.547Z,14.89
2018-10-03T18:45:21.252Z,14.78
2018-10-03T18:47:50.624Z,14.68
2018-10-03T18:50:20.099Z,14.45
2018-10-03T18:52:49.498Z,14.33
2018-10-03T18:55:18.881Z,14.31
2018-10-03T18:57:48.393Z,14.32
2018-10-03T19:00:17.846Z,14.41
2018-10-03T19:02:47.345Z,14.24
2018-10-03T19:05:16.728Z,14.18
2018-10-03T19:07:46.171Z,14.21
2018-10-03T19:10:15.584Z,14.34
2018-10-03T19:12:44.989Z,14.26
2018-10-03T19:15:14.504Z,14.26
2018-10-03T19:17:43.982Z,14.38
2018-10-03T19:20:13.428Z,14.22
2018-10-03T19:22:42.718Z,14.07
2018-10-03T19:25:12.156Z,14.09
2018-10-03T19:27:41.523Z,14.10
2018-10-03T19:30:11.276Z,14.34
2018-10-03T19:32:40.652Z,14.24
2018-10-03T19:35:10.024Z,13.94
2018-10-03T19:37:40.124Z,13.92
2018-10-03T19:40:09.635Z,13.79
2018-10-03T19:42:39.002Z,13.88
2018-10-03T19:45:08.472Z,13.84
2018-10-03T19:47:37.882Z,13.88
2018-10-03T19:50:07.273Z,13.71
2018-10-03T19:52:36.949Z,13.76
2018-10-03T19:55:06.499Z,13.79
2018-10-03T19:57:35.991Z,13.89
2018-10-03T20:00:05.680Z,13.77
2018-10-03T20:02:35.069Z,13.92
2018-10-03T20:05:04.551Z,13.92
2018-10-03T20:07:34.080Z,14.04
2018-10-03T20:10:03.613Z,13.92
2018-10-03T20:12:33.063Z,13.99
2018-10-03T20:15:02.767Z,13.96
2018-10-03T20:17:32.198Z,13.79
2018-10-03T20:20:01.619Z,14.00
2018-10-03T20:22:31.018Z,13.81
2018-10-03T20:25:00.451Z,13.67
2018-10-03T20:27:29.894Z,13.83
2018-10-03T20:29:59.218Z,14.03
2018-10-03T20:32:28.578Z,14.06
2018-10-03T20:34:58.073Z,14.12
2018-10-03T20:37:27.616Z,14.23
2018-10-03T20:39:57.016Z,14.17
2018-10-03T20:42:26.382Z,14.18
2018-10-03T20:44:55.867Z,14.21
2018-10-03T20:47:26.799Z,14.19
2018-10-03T20:49:56.167Z,14.17
2018-10-03T20:52:25.503Z,14.10
2018-10-03T20:54:54.843Z,14.07
2018-10-03T20:57:24.287Z,14.11
2018-10-03T20:59:53.748Z,14.14
2018-10-03T21:02:23.130Z,14.33
2018-10-03T21:04:52.543Z,14.29
2018-10-03T21:07:22.494Z,14.27
2018-10-03T21:09:51.823Z,14.33
2018-10-03T21:12:21.151Z,14.29
2018-10-03T21:14:50.644Z,14.38
2018-10-03T21:17:20.265Z,14.14
2018-10-03T21:19:49.839Z,14.01
2018-10-03T21:22:19.578Z,14.11
2018-10-03T21:24:49.210Z,13.97
2018-10-03T21:27:19.112Z,14.21
2018-10-03T21:29:48.933Z,14.00
2018-10-03T21:32:18.484Z,13.98
2018-10-03T21:34:47.887Z,13.77
2018-10-03T21:37:17.472Z,13.89
2018-10-03T21:39:47.688Z,14.06
2018-10-03T21:42:17.125Z,14.12
2018-10-03T21:44:46.810Z,14.22
2018-10-03T21:47:16.312Z,14.34
2018-10-03T21:49:46.072Z,14.50
2018-10-03T21:52:15.534Z,14.49
2018-10-03T21:54:45.004Z,14.41
2018-10-03T21:57:14.341Z,14.49
2018-10-03T21:59:43.846Z,14.38
2018-10-03T22:02:14.034Z,14.57
2018-10-03T22:04:43.381Z,14.54
2018-10-03T22:07:12.887Z,14.64
2018-10-03T22:09:42.423Z,14.67
2018-10-03T22:12:11.875Z,14.72
2018-10-03T22:14:41.484Z,14.60
2018-10-03T22:17:17.675Z,14.50
2018-10-03T22:19:47.739Z,14.63
2018-10-03T22:22:17.233Z,14.58
2018-10-03T22:24:47.596Z,14.54
2018-10-03T22:27:17.312Z,14.41
2018-10-03T22:29:47.746Z,14.38
2018-10-03T22:32:17.297Z,14.11
2018-10-03T22:34:46.740Z,13.90
2018-10-03T22:37:16.392Z,13.80
2018-10-03T22:39:46.711Z,13.77
2018-10-03T22:42:18.241Z,13.75
2018-10-03T22:44:47.536Z,13.89
2018-10-03T22:47:16.865Z,13.76
2018-10-03T22:49:46.238Z,13.81
2018-10-03T22:52:16.078Z,13.65
2018-10-03T22:54:46.605Z,13.67
2018-10-03T22:57:15.944Z,13.58
2018-10-03T22:59:45.603Z,13.74
2018-10-03T23:02:15.495Z,13.88
2018-10-03T23:04:44.862Z,13.80
2018-10-03T23:07:15.154Z,13.41
2018-10-03T23:09:44.739Z,13.55
2018-10-03T23:12:16.378Z,13.65
2018-10-03T23:14:47.269Z,13.54
2018-10-03T23:17:16.647Z,13.47
2018-10-03T23:19:45.994Z,13.55
2018-10-03T23:22:15.652Z,13.49
2018-10-03T23:24:45.028Z,13.52
2018-10-03T23:27:14.343Z,13.38
2018-10-03T23:29:43.739Z,13.16
2018-10-03T23:32:13.137Z,13.09
2018-10-03T23:34:42.484Z,13.16
2018-10-03T23:37:11.850Z,13.01
2018-10-03T23:39:41.234Z,13.01
2018-10-03T23:42:10.603Z,13.09
2018-10-03T23:44:40.052Z,13.20
2018-10-03T23:47:09.376Z,12.96
2018-10-03T23:49:38.746Z,12.65
2018-10-03T23:52:08.535Z,12.75
2018-10-03T23:54:37.898Z,12.60
2018-10-03T23:57:07.200Z,12.77
2018-10-03T23:59:36.562Z,12.77
